createdAt,value
2023-05-08T00:00:59.247Z,8.03
2023-05-08T00:04:02.904Z,8.00
2023-05-08T00:07:06.147Z,7.97
2023-05-08T00:10:11.229Z,7.92
2023-05-08T00:13:15.954Z,7.89
2023-05-08T00:16:19.767Z,7.81
2023-05-08T00:19:22.906Z,7.76
2023-05-08T00:22:28.628Z,7.74
2023-05-08T00:25:32.060Z,7.71
2023-05-08T00:28:36.627Z,7.63
2023-05-08T00:31:39.760Z,7.61
2023-05-08T00:34:42.941Z,7.61
2023-05-08T00:37:47.193Z,7.55
2023-05-08T00:40:50.294Z,7.49
2023-05-08T00:43:54.699Z,7.43
2023-05-08T00:46:58.224Z,7.39
2023-05-08T00:50:02.282Z,7.35
2023-05-08T00:53:06.362Z,7.34
2023-05-08T00:56:13.747Z,7.26
2023-05-08T00:59:18.663Z,7.23
2023-05-08T01:02:21.889Z,7.20
2023-05-08T01:05:25.050Z,7.17
2023-05-08T01:08:28.124Z,7.16
2023-05-08T01:11:47.147Z,7.15
2023-05-08T01:15:10.694Z,7.14
2023-05-08T01:18:18.829Z,7.07
2023-05-08T01:21:33.312Z,7.04
2023-05-08T01:25:23.779Z,7.05
2023-05-08T01:29:12.995Z,7.01
2023-05-08T01:32:21.880Z,6.96
2023-05-08T01:35:32.948Z,6.94
2023-05-08T01:38:47.746Z,6.93
2023-05-08T01:42:01.004Z,6.86
2023-05-08T01:45:13.793Z,6.82
2023-05-08T01:48:25.643Z,6.84
2023-05-08T01:51:41.912Z,6.76
2023-05-08T01:54:53.858Z,6.75
2023-05-08T01:57:59.225Z,6.69
2023-05-08T02:01:03.524Z,6.63
2023-05-08T02:04:09.607Z,6.64
2023-05-08T02:07:13.815Z,6.66
2023-05-08T02:10:18.447Z,6.59
2023-05-08T02:13:23.604Z,6.53
2023-05-08T02:16:28.265Z,6.50
2023-05-08T02:19:33.837Z,6.47
2023-05-08T02:22:38.209Z,6.45
2023-05-08T02:25:42.548Z,6.38
2023-05-08T02:28:47.144Z,6.37
2023-05-08T02:31:51.588Z,6.31
2023-05-08T02:35:03.136Z,6.29
2023-05-08T02:38:10.774Z,6.27
2023-05-08T02:41:17.865Z,6.22
2023-05-08T02:44:21.138Z,6.18
2023-05-08T02:47:30.921Z,6.14
2023-05-08T02:50:43.060Z,6.14
2023-05-08T02:53:52.798Z,6.09
2023-05-08T02:57:01.322Z,6.04
2023-05-08T03:00:13.802Z,6.02
2023-05-08T03:03:24.275Z,6.00
2023-05-08T03:06:36.813Z,5.96
2023-05-08T03:09:46.819Z,5.94
2023-05-08T03:12:55.416Z,5.92
2023-05-08T03:16:03.140Z,5.89
2023-05-08T03:19:13.943Z,5.87
2023-05-08T03:22:21.461Z,5.82
2023-05-08T03:25:25.824Z,5.77
2023-05-08T03:28:30.581Z,5.78
2023-05-08T03:31:36.298Z,5.76
2023-05-08T03:34:42.229Z,5.76
2023-05-08T03:37:46.789Z,5.77
2023-05-08T03:40:50.697Z,5.81
2023-05-08T03:43:55.073Z,5.77
2023-05-08T03:46:59.454Z,5.74
2023-05-08T03:50:04.246Z,5.73
2023-05-08T03:53:08.832Z,5.69
2023-05-08T03:56:12.200Z,5.71
2023-05-08T03:59:24.275Z,5.72
2023-05-08T04:02:42.043Z,5.75
2023-05-08T04:05:57.897Z,5.73
2023-05-08T04:09:10.273Z,5.78
2023-05-08T04:12:19.264Z,5.76
2023-05-08T04:15:26.637Z,5.81
2023-05-08T04:18:30.669Z,5.87
2023-05-08T04:21:38.003Z,5.89
2023-05-08T04:24:46.638Z,5.92
2023-05-08T04:27:56.005Z,5.93
2023-05-08T04:31:00.514Z,5.99
2023-05-08T04:34:04.522Z,6.03
2023-05-08T04:37:08.504Z,6.10
2023-05-08T04:40:14.710Z,6.17
2023-05-08T04:43:19.042Z,6.25
2023-05-08T04:46:22.207Z,6.34
2023-05-08T04:49:25.380Z,6.40
2023-05-08T04:52:28.455Z,6.44
2023-05-08T04:55:33.283Z,6.50
2023-05-08T04:58:36.472Z,6.58
2023-05-08T05:01:40.124Z,6.70
2023-05-08T05:04:44.075Z,6.76
2023-05-08T05:07:47.458Z,6.86
2023-05-08T05:10:52.635Z,6.93
2023-05-08T05:13:55.762Z,7.02
2023-05-08T05:17:02.959Z,7.15
2023-05-08T05:20:08.911Z,7.18
2023-05-08T05:23:12.852Z,7.31
2023-05-08T05:26:17.670Z,7.46
2023-05-08T05:29:21.364Z,7.58
2023-05-08T05:32:24.855Z,7.63
2023-05-08T05:35:28.250Z,7.74
2023-05-08T05:38:33.188Z,7.93
2023-05-08T05:41:38.256Z,8.03
2023-05-08T05:44:41.744Z,8.12
2023-05-08T05:47:47.634Z,8.26
2023-05-08T05:50:50.921Z,8.39
2023-05-08T05:53:54.378Z,8.36
2023-05-08T05:57:00.030Z,8.40
2023-05-08T06:00:03.470Z,8.54
2023-05-08T06:03:11.178Z,8.67
2023-05-08T06:25:15.123Z,9.19
2023-05-08T06:35:42.916Z,9.54
2023-05-08T06:38:51.988Z,9.73
2023-05-08T06:41:57.362Z,9.90
2023-05-08T06:45:17.109Z,9.89
2023-05-08T06:48:28.983Z,9.95
2023-05-08T06:51:32.896Z,10.07
2023-05-08T06:54:38.423Z,10.18
2023-05-08T06:57:44.469Z,10.38
2023-05-08T07:00:56.386Z,10.66
2023-05-08T07:04:01.328Z,10.98
2023-05-08T07:07:06.798Z,11.21
2023-05-08T07:10:16.846Z,10.96
2023-05-08T07:13:24.469Z,10.98
2023-05-08T07:16:32.042Z,11.16
2023-05-08T07:19:38.904Z,11.49
2023-05-08T07:22:50.283Z,11.67
2023-05-08T07:25:57.091Z,11.94
2023-05-08T07:29:00.339Z,11.96
2023-05-08T07:32:10.377Z,12.43
2023-05-08T07:35:20.488Z,12.33
2023-05-08T07:38:28.612Z,12.41
2023-05-08T07:41:37.127Z,12.51
2023-05-08T07:44:54.833Z,12.48
2023-05-08T07:48:09.910Z,12.46
2023-05-08T07:51:31.768Z,12.41
2023-05-08T07:54:41.820Z,12.57
2023-05-08T07:57:56.472Z,12.39
2023-05-08T08:01:03.547Z,12.71
2023-05-08T08:04:09.867Z,13.00
2023-05-08T08:07:18.003Z,13.05
2023-05-08T08:10:24.463Z,13.11
2023-05-08T08:13:32.766Z,13.29
2023-05-08T08:16:36.222Z,13.34
2023-05-08T08:20:00.321Z,13.32
2023-05-08T08:23:06.529Z,13.43
2023-05-08T08:26:14.942Z,13.36
2023-05-08T08:29:30.701Z,13.50
2023-05-08T08:32:39.846Z,13.35
2023-05-08T08:35:57.150Z,13.62
2023-05-08T08:39:00.807Z,13.73
2023-05-08T08:42:07.966Z,13.86
2023-05-08T08:45:12.660Z,13.99
2023-05-08T08:48:18.920Z,13.97
2023-05-08T08:51:29.351Z,14.15
2023-05-08T08:54:41.367Z,14.20
2023-05-08T08:58:22.774Z,14.31
2023-05-08T09:01:37.284Z,14.23
2023-05-08T09:04:58.546Z,14.20
2023-05-08T09:08:12.861Z,14.46
2023-05-08T09:11:19.242Z,14.91
2023-05-08T09:14:28.790Z,14.83
2023-05-08T09:17:52.531Z,14.46
2023-05-08T09:21:45.309Z,14.86
2023-05-08T09:25:01.301Z,15.42
2023-05-08T09:28:20.100Z,15.01
2023-05-08T09:31:53.153Z,15.21
2023-05-08T09:35:01.005Z,15.51
2023-05-08T09:38:43.368Z,15.29
2023-05-08T09:42:15.231Z,15.67
2023-05-08T09:45:35.514Z,15.65
2023-05-08T09:48:41.086Z,15.66
2023-05-08T09:51:54.198Z,15.70
2023-05-08T09:55:02.196Z,15.75
2023-05-08T09:58:16.012Z,15.45
2023-05-08T10:01:40.656Z,16.02
2023-05-08T10:04:52.298Z,16.55
2023-05-08T10:08:04.056Z,16.49
2023-05-08T10:11:20.790Z,16.12
2023-05-08T10:14:33.259Z,16.69
2023-05-08T10:17:52.903Z,16.36
2023-05-08T10:21:04.355Z,16.79
2023-05-08T10:24:26.204Z,16.75
2023-05-08T10:27:42.450Z,17.25
2023-05-08T10:30:57.251Z,17.21
2023-05-08T10:34:05.150Z,17.47
2023-05-08T10:37:36.109Z,17.71
2023-05-08T10:41:05.987Z,17.68
2023-05-08T10:44:19.954Z,17.62
2023-05-08T10:47:34.196Z,17.42
2023-05-08T10:50:56.587Z,16.83
2023-05-08T10:54:10.013Z,16.93
2023-05-08T10:57:30.253Z,17.54
2023-05-08T11:01:07.264Z,17.59
2023-05-08T11:04:23.145Z,17.80
2023-05-08T11:08:12.159Z,17.87
2023-05-08T11:12:09.450Z,18.40
2023-05-08T11:15:14.942Z,18.00
2023-05-08T11:18:19.804Z,18.49
2023-05-08T11:22:18.412Z,18.96
2023-05-08T11:29:32.155Z,17.92
2023-05-08T11:36:47.838Z,18.76
2023-05-08T11:39:52.068Z,18.10
2023-05-08T11:43:17.945Z,18.42
2023-05-08T11:46:44.066Z,18.34
2023-05-08T11:49:51.441Z,18.76
2023-05-08T11:53:30.679Z,18.42
2023-05-08T11:56:36.989Z,18.86
2023-05-08T12:01:06.880Z,18.81
2023-05-08T12:05:44.255Z,19.25
2023-05-08T12:14:22.004Z,19.39
2023-05-08T12:17:52.386Z,19.42
2023-05-08T12:21:30.719Z,19.51
2023-05-08T12:25:16.425Z,19.03
2023-05-08T12:31:51.433Z,19.49
2023-05-08T12:35:02.073Z,19.21
2023-05-08T12:38:25.812Z,19.34
2023-05-08T12:41:56.192Z,19.49
2023-05-08T12:45:03.968Z,19.44
2023-05-08T12:48:10.511Z,19.30
2023-05-08T12:51:44.213Z,18.91
2023-05-08T12:54:54.131Z,19.21
2023-05-08T12:58:14.271Z,20.01
2023-05-08T14:05:30.064Z,20.75
2023-05-08T14:08:35.248Z,21.00
2023-05-08T14:11:40.614Z,20.34
2023-05-08T14:14:43.823Z,20.82
2023-05-08T14:17:46.952Z,20.46
2023-05-08T14:20:57.115Z,20.69
2023-05-08T14:24:07.226Z,20.86
2023-05-08T14:27:10.428Z,20.37
2023-05-08T14:30:16.666Z,20.41
2023-05-08T14:33:20.099Z,20.53
2023-05-08T14:36:24.787Z,20.59
2023-05-08T14:39:29.699Z,20.87
2023-05-08T14:42:39.301Z,20.15
2023-05-08T14:45:47.318Z,20.49
2023-05-08T14:48:50.876Z,20.46
2023-05-08T14:51:57.426Z,20.78
2023-05-08T14:55:03.707Z,20.37
2023-05-08T14:58:09.802Z,20.49
2023-05-08T15:01:13.159Z,20.56
2023-05-08T15:04:19.627Z,19.93
2023-05-08T15:07:30.444Z,20.63
2023-05-08T15:10:33.716Z,20.47
2023-05-08T15:13:36.845Z,20.63
2023-05-08T15:16:45.020Z,21.00
2023-05-08T15:19:56.972Z,21.16
2023-05-08T15:27:04.990Z,20.83
2023-05-08T15:30:15.535Z,20.52
2023-05-08T15:33:24.893Z,20.65
2023-05-08T15:36:31.460Z,20.46
2023-05-08T15:39:39.872Z,20.40
2023-05-08T15:42:43.008Z,20.97
2023-05-08T15:45:50.521Z,20.34
2023-05-08T15:49:08.455Z,20.35
2023-05-08T15:52:11.793Z,20.94
2023-05-08T15:55:19.260Z,20.55
2023-05-08T15:58:23.222Z,20.27
2023-05-08T16:01:26.405Z,19.60
2023-05-08T16:04:32.707Z,19.66
2023-05-08T16:07:40.102Z,19.60
2023-05-08T16:10:48.059Z,19.32
2023-05-08T16:13:54.289Z,19.06
2023-05-08T16:16:57.481Z,18.72
2023-05-08T16:20:01.687Z,18.66
2023-05-08T16:23:07.064Z,18.41
2023-05-08T16:26:15.481Z,18.50
2023-05-08T16:29:18.680Z,18.42
2023-05-08T16:32:23.696Z,18.46
2023-05-08T16:35:26.950Z,18.24
2023-05-08T16:38:30.014Z,18.19
2023-05-08T16:41:39.344Z,18.14
2023-05-08T16:44:42.687Z,18.09
2023-05-08T16:47:46.168Z,18.03
2023-05-08T16:50:49.258Z,17.87
2023-05-08T16:53:52.528Z,17.88
2023-05-08T16:56:58.140Z,17.86
2023-05-08T17:00:07.482Z,17.82
2023-05-08T17:03:10.596Z,17.76
2023-05-08T17:06:13.646Z,17.78
2023-05-08T17:09:18.379Z,17.75
2023-05-08T17:12:22.654Z,17.69
2023-05-08T17:15:25.664Z,17.55
2023-05-08T17:18:28.605Z,17.47
2023-05-08T17:21:32.137Z,17.38
2023-05-08T17:24:37.185Z,17.37
2023-05-08T17:27:42.024Z,17.41
2023-05-08T17:30:46.383Z,17.34
2023-05-08T17:33:49.524Z,17.13
2023-05-08T17:36:54.475Z,17.09
2023-05-08T17:39:58.486Z,17.06
2023-05-08T17:43:05.612Z,17.07
2023-05-08T17:46:09.226Z,16.98
2023-05-08T17:49:13.005Z,16.91
2023-05-08T17:52:16.209Z,16.88
2023-05-08T17:55:20.082Z,16.72
2023-05-08T17:58:25.118Z,16.65
2023-05-08T18:01:29.394Z,16.60
2023-05-08T18:04:32.585Z,16.60
2023-05-08T18:07:40.648Z,16.56
2023-05-08T18:10:43.821Z,16.44
2023-05-08T18:13:48.487Z,16.38
2023-05-08T18:16:51.504Z,16.25
2023-05-08T18:19:54.533Z,16.22
2023-05-08T18:22:57.597Z,16.14
2023-05-08T18:26:00.640Z,16.03
2023-05-08T18:29:06.244Z,15.82
2023-05-08T18:32:11.951Z,15.83
2023-05-08T18:35:14.974Z,15.79
2023-05-08T18:38:18.471Z,15.65
2023-05-08T18:41:21.503Z,15.54
2023-05-08T18:44:25.827Z,15.46
2023-05-08T18:47:28.857Z,15.36
2023-05-08T18:50:31.883Z,15.24
2023-05-08T18:53:38.452Z,15.25
2023-05-08T18:56:41.696Z,15.04
2023-05-08T18:59:46.056Z,14.94
2023-05-08T19:02:49.326Z,14.70
2023-05-08T19:05:52.568Z,14.67
2023-05-08T19:08:55.701Z,14.68
2023-05-08T19:11:58.788Z,14.60
2023-05-08T19:15:03.203Z,14.48
2023-05-08T19:18:06.924Z,14.36
2023-05-08T19:21:10.099Z,14.32
2023-05-08T19:24:16.173Z,14.19
2023-05-08T19:27:19.692Z,14.07
2023-05-08T19:30:24.075Z,14.05
2023-05-08T19:33:28.516Z,13.96
2023-05-08T19:36:35.506Z,13.93
2023-05-08T19:39:39.985Z,13.85
2023-05-08T19:42:43.453Z,13.77
2023-05-08T19:45:47.802Z,13.67
2023-05-08T19:48:50.854Z,13.63
2023-05-08T19:51:54.432Z,13.58
2023-05-08T19:54:58.493Z,13.51
2023-05-08T19:58:05.698Z,13.45
2023-05-08T20:01:10.244Z,13.37
2023-05-08T20:04:13.364Z,13.36
2023-05-08T20:07:17.213Z,13.31
2023-05-08T20:10:20.235Z,13.26
2023-05-08T20:13:23.259Z,13.15
2023-05-08T20:16:27.742Z,13.09
2023-05-08T20:19:30.750Z,12.97
2023-05-08T20:22:35.787Z,12.96
2023-05-08T20:25:38.797Z,12.98
2023-05-08T20:28:43.804Z,12.79
2023-05-08T20:31:48.128Z,12.70
2023-05-08T20:34:52.824Z,12.65
2023-05-08T20:37:55.899Z,12.63
2023-05-08T20:41:01.051Z,12.55
2023-05-08T20:44:04.591Z,12.50
2023-05-08T20:47:08.968Z,12.40
2023-05-08T20:50:12.304Z,12.29
2023-05-08T20:53:15.499Z,12.28
2023-05-08T20:56:19.206Z,12.17
2023-05-08T20:59:23.174Z,12.19
2023-05-08T21:02:27.575Z,12.10
2023-05-08T21:05:31.091Z,12.03
2023-05-08T21:08:35.167Z,11.96
2023-05-08T21:11:38.377Z,11.89
2023-05-08T21:14:43.822Z,11.72
2023-05-08T21:17:48.276Z,11.70
2023-05-08T21:20:51.304Z,11.67
2023-05-08T21:23:54.360Z,11.59
2023-05-08T21:26:59.449Z,11.45
2023-05-08T21:30:04.512Z,11.30
2023-05-08T21:33:13.654Z,11.24
2023-05-08T21:36:16.846Z,11.02
2023-05-08T21:39:19.869Z,11.04
2023-05-08T21:42:22.930Z,10.98
2023-05-08T21:45:25.980Z,10.85
2023-05-08T21:48:30.263Z,10.93
2023-05-08T21:51:33.328Z,10.88
2023-05-08T21:54:36.431Z,10.80
2023-05-08T21:57:39.569Z,10.67
2023-05-08T22:00:42.644Z,10.62
2023-05-08T22:03:47.160Z,10.59
2023-05-08T22:06:50.254Z,10.53
2023-05-08T22:09:53.260Z,10.53
2023-05-08T22:12:56.380Z,10.52
2023-05-08T22:15:59.670Z,10.45
2023-05-08T22:19:03.995Z,10.50
2023-05-08T22:22:07.342Z,10.40
2023-05-08T22:25:10.799Z,10.29
2023-05-08T22:28:13.953Z,10.31
2023-05-08T22:31:17.016Z,10.31
2023-05-08T22:34:21.373Z,10.26
2023-05-08T22:37:24.574Z,10.22
2023-05-08T22:40:28.148Z,10.21
2023-05-08T22:43:32.359Z,10.12
2023-05-08T22:46:35.924Z,10.08
2023-05-08T22:49:41.806Z,10.01
2023-05-08T22:52:44.888Z,9.99
2023-05-08T22:55:47.844Z,9.87
2023-05-08T22:58:50.812Z,9.85
2023-05-08T23:01:53.905Z,9.82
2023-05-08T23:04:58.411Z,9.76
2023-05-08T23:08:02.404Z,9.70
2023-05-08T23:11:07.329Z,9.69
2023-05-08T23:14:10.343Z,9.74
2023-05-08T23:17:14.046Z,9.69
2023-05-08T23:20:18.836Z,9.56
2023-05-08T23:23:22.061Z,9.55
2023-05-08T23:26:25.131Z,9.54
2023-05-08T23:29:28.788Z,9.47
2023-05-08T23:32:31.899Z,9.44
2023-05-08T23:35:36.214Z,9.39
2023-05-08T23:38:39.181Z,9.36
2023-05-08T23:41:42.120Z,9.32
2023-05-08T23:44:45.079Z,9.31
2023-05-08T23:47:49.336Z,9.29
2023-05-08T23:50:54.043Z,9.24
2023-05-08T23:53:57.135Z,9.27
2023-05-08T23:57:00.181Z,9.20
